createdAt,value
2022-09-12T00:00:42.611Z,100.00
2022-09-12T00:03:09.155Z,100.00
2022-09-12T00:05:44.888Z,100.00
2022-09-12T00:08:12.840Z,100.00
2022-09-12T00:10:41.861Z,100.00
2022-09-12T00:13:08.665Z,100.00
2022-09-12T00:15:42.858Z,100.00
2022-09-12T00:18:15.101Z,100.00
2022-09-12T00:20:43.897Z,100.00
2022-09-12T00:23:10.763Z,100.00
2022-09-12T00:25:55.391Z,100.00
2022-09-12T00:28:21.894Z,100.00
2022-09-12T00:30:49.282Z,100.00
2022-09-12T00:33:17.434Z,100.00
2022-09-12T00:35:49.748Z,100.00
2022-09-12T00:38:17.392Z,100.00
2022-09-12T00:40:44.946Z,100.00
2022-09-12T00:43:29.830Z,100.00
2022-09-12T00:46:05.502Z,100.00
2022-09-12T00:48:37.117Z,100.00
2022-09-12T00:51:03.932Z,100.00
2022-09-12T00:53:30.966Z,100.00
2022-09-12T00:55:58.207Z,100.00
2022-09-12T00:58:54.894Z,100.00
2022-09-12T01:01:21.692Z,100.00
2022-09-12T01:03:49.705Z,100.00
2022-09-12T01:06:24.917Z,100.00
2022-09-12T01:08:54.963Z,100.00
2022-09-12T01:11:21.927Z,100.00
2022-09-12T01:13:49.670Z,100.00
2022-09-12T01:16:16.481Z,100.00
2022-09-12T01:19:13.106Z,100.00
2022-09-12T01:21:54.380Z,100.00
2022-09-12T01:24:34.969Z,100.00
2022-09-12T01:27:13.541Z,100.00
2022-09-12T01:30:04.594Z,100.00
2022-09-12T01:32:52.878Z,100.00
2022-09-12T01:35:22.888Z,100.00
2022-09-12T01:38:37.219Z,100.00
2022-09-12T01:41:28.703Z,100.00
2022-09-12T01:44:04.219Z,100.00
2022-09-12T01:46:49.255Z,100.00
2022-09-12T01:49:26.984Z,100.00
2022-09-12T01:51:57.578Z,100.00
2022-09-12T01:54:37.429Z,100.00
2022-09-12T01:57:12.814Z,100.00
2022-09-12T01:59:45.476Z,100.00
2022-09-12T02:02:28.067Z,100.00
2022-09-12T02:05:08.938Z,100.00
2022-09-12T02:07:53.702Z,100.00
2022-09-12T02:10:32.640Z,100.00
2022-09-12T02:13:12.132Z,100.00
2022-09-12T02:15:48.446Z,100.00
2022-09-12T02:18:18.310Z,100.00
2022-09-12T02:20:49.441Z,100.00
2022-09-12T02:23:23.468Z,100.00
2022-09-12T02:25:54.181Z,100.00
2022-09-12T02:28:29.474Z,100.00
2022-09-12T02:31:14.676Z,100.00
2022-09-12T02:33:54.391Z,100.00
2022-09-12T02:36:40.073Z,100.00
2022-09-12T02:39:06.712Z,100.00
2022-09-12T02:41:33.434Z,100.00
2022-09-12T02:44:00.178Z,100.00
2022-09-12T02:46:33.731Z,100.00
2022-09-12T02:49:00.326Z,100.00
2022-09-12T02:51:27.188Z,100.00
2022-09-12T02:53:56.815Z,100.00
2022-09-12T02:56:28.553Z,100.00
2022-09-12T02:58:59.420Z,100.00
2022-09-12T03:01:43.973Z,100.00
2022-09-12T03:04:40.076Z,100.00
2022-09-12T03:07:26.900Z,100.00
2022-09-12T03:10:02.384Z,100.00
2022-09-12T03:12:35.018Z,100.00
2022-09-12T03:15:40.168Z,100.00
2022-09-12T03:18:24.802Z,100.00
2022-09-12T03:21:00.733Z,100.00
2022-09-12T03:24:24.495Z,100.00
2022-09-12T03:26:58.715Z,100.00
2022-09-12T03:29:27.410Z,100.00
2022-09-12T03:31:56.423Z,100.00
2022-09-12T03:34:24.624Z,100.00
2022-09-12T03:36:51.605Z,100.00
2022-09-12T03:39:18.409Z,100.00
2022-09-12T03:41:44.897Z,100.00
2022-09-12T03:44:11.384Z,100.00
2022-09-12T03:46:37.909Z,100.00
2022-09-12T03:49:04.681Z,100.00
2022-09-12T03:51:31.189Z,100.00
2022-09-12T03:53:57.653Z,100.00
2022-09-12T03:56:24.318Z,100.00
2022-09-12T03:58:50.877Z,100.00
2022-09-12T04:01:19.540Z,100.00
2022-09-12T04:03:48.471Z,100.00
2022-09-12T04:06:16.931Z,100.00
2022-09-12T04:08:44.776Z,100.00
2022-09-12T04:11:14.200Z,100.00
2022-09-12T04:13:42.501Z,100.00
2022-09-12T04:16:10.536Z,100.00
2022-09-12T04:18:37.730Z,100.00
2022-09-12T04:21:13.392Z,100.00
2022-09-12T04:23:40.532Z,100.00
2022-09-12T04:26:07.862Z,100.00
2022-09-12T04:28:36.420Z,100.00
2022-09-12T04:31:06.887Z,100.00
2022-09-12T04:33:37.247Z,100.00
2022-09-12T04:36:09.288Z,100.00
2022-09-12T04:38:36.810Z,100.00
2022-09-12T04:41:12.648Z,100.00
2022-09-12T04:43:39.195Z,100.00
2022-09-12T04:46:07.965Z,100.00
2022-09-12T04:48:34.823Z,100.00
2022-09-12T04:51:14.887Z,100.00
2022-09-12T04:53:42.980Z,100.00
2022-09-12T04:56:11.554Z,100.00
2022-09-12T04:58:38.621Z,100.00
2022-09-12T05:01:19.280Z,100.00
2022-09-12T05:03:47.285Z,100.00
2022-09-12T05:06:19.802Z,100.00
2022-09-12T05:08:46.976Z,100.00
2022-09-12T05:11:16.116Z,100.00
2022-09-12T05:13:42.862Z,100.00
2022-09-12T05:16:11.795Z,100.00
2022-09-12T05:18:38.851Z,100.00
2022-09-12T05:21:08.030Z,100.00
2022-09-12T05:23:36.361Z,100.00
2022-09-12T05:26:04.632Z,100.00
2022-09-12T05:28:35.589Z,100.00
2022-09-12T05:31:13.870Z,91.20
2022-09-12T05:33:42.574Z,93.22
2022-09-12T05:36:17.797Z,92.13
2022-09-12T05:38:45.336Z,87.12
2022-09-12T05:41:24.652Z,82.21
2022-09-12T05:44:00.807Z,74.41
2022-09-12T05:46:29.856Z,72.17
2022-09-12T05:48:58.335Z,71.26
2022-09-12T05:51:27.280Z,74.14
2022-09-12T05:53:59.632Z,72.51
2022-09-12T05:56:28.452Z,68.68
2022-09-12T05:58:59.833Z,70.14
2022-09-12T06:01:28.162Z,67.09
2022-09-12T06:03:57.749Z,64.36
2022-09-12T06:06:25.294Z,63.58
2022-09-12T06:08:54.717Z,62.80
2022-09-12T06:11:23.968Z,60.95
2022-09-12T06:13:53.168Z,61.29
2022-09-12T06:16:22.107Z,60.33
2022-09-12T06:18:56.551Z,57.56
2022-09-12T06:21:24.672Z,55.62
2022-09-12T06:23:51.330Z,56.31
2022-09-12T06:26:21.641Z,58.04
2022-09-12T06:28:48.364Z,53.89
2022-09-12T06:31:20.588Z,54.38
2022-09-12T06:33:54.463Z,53.37
2022-09-12T06:36:30.095Z,53.54
2022-09-12T06:39:02.342Z,50.64
2022-09-12T06:41:31.107Z,50.59
2022-09-12T06:43:58.249Z,46.23
2022-09-12T06:46:25.637Z,45.83
2022-09-12T06:48:52.479Z,45.52
2022-09-12T06:51:20.315Z,44.87
2022-09-12T06:53:50.824Z,46.47
2022-09-12T06:59:00.790Z,45.24
2022-09-12T07:01:30.992Z,42.10
2022-09-12T07:04:00.332Z,42.55
2022-09-12T07:06:32.281Z,42.94
2022-09-12T07:09:01.007Z,41.12
2022-09-12T07:11:36.483Z,42.27
2022-09-12T07:14:04.972Z,43.34
2022-09-12T07:16:32.314Z,41.77
2022-09-12T07:19:03.901Z,41.59
2022-09-12T07:21:30.534Z,41.19
2022-09-12T07:23:59.828Z,38.83
2022-09-12T07:26:29.977Z,39.41
2022-09-12T07:29:12.789Z,39.73
2022-09-12T07:31:51.576Z,38.59
2022-09-12T07:34:18.046Z,39.04
2022-09-12T07:36:44.648Z,38.64
2022-09-12T07:39:11.141Z,37.56
2022-09-12T07:41:38.023Z,38.11
2022-09-12T07:44:07.255Z,38.38
2022-09-12T07:46:34.381Z,35.21
2022-09-12T07:49:01.530Z,34.70
2022-09-12T07:51:30.549Z,35.68
2022-09-12T07:53:57.625Z,35.41
2022-09-12T07:56:29.438Z,36.36
2022-09-12T07:58:57.656Z,35.05
2022-09-12T08:01:24.409Z,37.09
2022-09-12T08:03:55.067Z,36.62
2022-09-12T08:06:24.597Z,36.71
2022-09-12T08:08:52.269Z,33.01
2022-09-12T08:14:58.407Z,37.77
2022-09-12T08:17:24.897Z,35.77
2022-09-12T08:19:51.435Z,32.86
2022-09-12T08:22:19.001Z,35.76
2022-09-12T08:24:45.528Z,28.14
2022-09-12T08:27:12.441Z,28.48
2022-09-12T08:29:38.950Z,33.60
2022-09-12T08:32:05.656Z,32.13
2022-09-12T08:34:32.437Z,26.70
2022-09-12T08:36:59.057Z,31.15
2022-09-12T08:39:25.716Z,29.59
2022-09-12T08:42:04.709Z,33.06
2022-09-12T08:44:56.439Z,34.92
2022-09-12T08:47:35.591Z,35.36
2022-09-12T08:50:08.254Z,38.72
2022-09-12T08:52:34.710Z,34.18
2022-09-12T08:55:02.826Z,29.69
2022-09-12T08:57:29.573Z,28.53
2022-09-12T08:59:56.575Z,32.88
2022-09-12T09:02:40.316Z,30.98
2022-09-12T09:05:24.577Z,31.35
2022-09-12T09:08:03.224Z,31.97
2022-09-12T09:10:53.680Z,32.16
2022-09-12T09:14:16.813Z,34.96
2022-09-12T09:16:46.610Z,42.49
2022-09-12T09:19:21.539Z,38.89
2022-09-12T09:21:57.700Z,37.98
2022-09-12T09:24:52.346Z,29.15
2022-09-12T09:27:40.424Z,32.24
2022-09-12T09:30:12.924Z,31.66
2022-09-12T09:32:41.481Z,36.81
2022-09-12T09:35:40.467Z,45.57
2022-09-12T09:38:34.141Z,44.12
2022-09-12T09:41:39.755Z,40.04
2022-09-12T09:46:38.212Z,45.29
2022-09-12T09:49:07.047Z,47.46
2022-09-12T09:51:39.600Z,49.74
2022-09-12T09:54:15.067Z,44.52
2022-09-12T09:56:42.742Z,38.41
2022-09-12T09:59:16.443Z,41.84
2022-09-12T10:01:52.401Z,42.97
2022-09-12T10:04:23.967Z,50.10
2022-09-12T10:07:02.184Z,43.35
2022-09-12T10:09:33.358Z,44.36
2022-09-12T10:12:19.349Z,46.25
2022-09-12T10:14:58.058Z,52.35
2022-09-12T10:17:33.757Z,53.75
2022-09-12T10:20:20.399Z,46.80
2022-09-12T10:22:49.240Z,38.91
2022-09-12T10:25:19.314Z,39.20
2022-09-12T10:36:04.433Z,37.61
2022-09-12T10:39:52.121Z,33.07
2022-09-12T10:43:08.490Z,30.90
2022-09-12T10:57:35.082Z,28.68
2022-09-12T11:00:30.326Z,33.62
2022-09-12T11:03:11.044Z,30.59
2022-09-12T11:09:35.899Z,35.13
2022-09-12T11:12:36.185Z,32.83
2022-09-12T11:15:29.529Z,33.60
2022-09-12T11:18:27.218Z,27.52
2022-09-12T11:21:12.034Z,28.42
2022-09-12T11:24:04.295Z,29.93
2022-09-12T11:26:52.706Z,30.09
2022-09-12T11:29:38.033Z,32.17
2022-09-12T11:32:22.018Z,25.88
2022-09-12T11:35:13.922Z,28.32
2022-09-12T11:37:46.233Z,29.34
2022-09-12T11:40:50.843Z,31.64
2022-09-12T11:43:29.091Z,32.51
2022-09-12T11:46:01.496Z,32.52
2022-09-12T11:48:40.263Z,29.44
2022-09-12T11:51:16.020Z,29.61
2022-09-12T11:53:44.582Z,30.80
2022-09-12T11:56:18.623Z,32.83
2022-09-12T11:58:51.826Z,33.11
2022-09-12T12:01:56.033Z,35.61
2022-09-12T12:04:30.096Z,33.84
2022-09-12T12:07:04.666Z,34.44
2022-09-12T12:09:31.544Z,32.52
2022-09-12T12:12:03.431Z,31.91
2022-09-12T12:14:45.446Z,31.90
2022-09-12T12:17:47.941Z,33.17
2022-09-12T12:20:20.262Z,33.30
2022-09-12T12:22:54.596Z,29.18
2022-09-12T12:25:37.120Z,31.48
2022-09-12T12:28:06.604Z,31.38
2022-09-12T12:35:04.630Z,32.82
2022-09-12T12:46:44.298Z,36.77
2022-09-12T12:49:26.883Z,31.94
2022-09-12T12:51:53.338Z,34.70
2022-09-12T12:54:49.928Z,34.75
2022-09-12T12:57:22.663Z,30.95
2022-09-12T13:00:08.729Z,33.84
2022-09-12T13:02:41.726Z,36.08
2022-09-12T13:05:24.229Z,40.62
2022-09-12T13:08:05.419Z,38.14
2022-09-12T13:10:32.084Z,40.26
2022-09-12T13:13:03.882Z,38.74
2022-09-12T13:15:36.473Z,38.22
2022-09-12T13:18:26.305Z,38.59
2022-09-12T13:21:14.424Z,37.29
2022-09-12T13:23:41.733Z,34.41
2022-09-12T13:26:14.558Z,39.00
2022-09-12T13:28:41.092Z,38.66
2022-09-12T13:31:14.647Z,37.32
2022-09-12T13:34:01.493Z,38.11
2022-09-12T13:37:21.589Z,35.73
2022-09-12T13:39:55.595Z,36.28
2022-09-12T13:42:40.956Z,39.00
2022-09-12T13:45:19.886Z,39.80
2022-09-12T13:47:51.354Z,41.36
2022-09-12T13:50:26.327Z,39.99
2022-09-12T13:53:05.983Z,39.57
2022-09-12T13:55:37.055Z,40.31
2022-09-12T13:58:04.947Z,39.09
2022-09-12T14:00:34.923Z,40.92
2022-09-12T14:03:21.029Z,44.44
2022-09-12T14:05:56.948Z,46.55
2022-09-12T14:08:23.970Z,47.93
2022-09-12T14:10:51.320Z,44.20
2022-09-12T14:13:25.157Z,46.85
2022-09-12T14:16:00.744Z,46.03
2022-09-12T14:18:32.094Z,43.79
2022-09-12T14:21:26.013Z,45.27
2022-09-12T14:23:55.406Z,45.94
2022-09-12T14:26:23.533Z,47.12
2022-09-12T14:28:51.732Z,46.62
2022-09-12T14:31:31.090Z,47.87
2022-09-12T14:34:12.396Z,47.54
2022-09-12T14:36:50.954Z,48.36
2022-09-12T14:39:29.974Z,48.03
2022-09-12T14:42:13.127Z,49.13
2022-09-12T14:44:42.901Z,45.94
2022-09-12T14:47:22.884Z,45.26
2022-09-12T14:49:53.480Z,46.43
2022-09-12T14:52:32.388Z,46.86
2022-09-12T14:55:29.517Z,48.22
2022-09-12T14:58:18.367Z,50.90
2022-09-12T15:01:02.387Z,51.14
2022-09-12T15:03:44.891Z,50.42
2022-09-12T15:06:31.472Z,50.79
2022-09-12T15:09:11.910Z,49.71
2022-09-12T15:11:38.569Z,50.29
2022-09-12T15:14:15.459Z,49.06
2022-09-12T15:16:42.051Z,51.37
2022-09-12T15:19:08.501Z,51.22
2022-09-12T15:21:35.006Z,50.17
2022-09-12T15:24:01.619Z,49.82
2022-09-12T15:26:30.567Z,49.72
2022-09-12T15:28:57.646Z,49.25
2022-09-12T15:31:24.141Z,51.42
2022-09-12T15:33:50.973Z,51.66
2022-09-12T15:36:20.183Z,51.50
2022-09-12T15:38:47.867Z,48.65
2022-09-12T15:41:20.357Z,48.21
2022-09-12T15:43:47.487Z,48.70
2022-09-12T15:46:16.109Z,50.35
2022-09-12T15:48:43.457Z,51.05
2022-09-12T15:51:15.477Z,53.49
2022-09-12T15:53:42.505Z,53.45
2022-09-12T15:56:09.016Z,54.98
2022-09-12T15:58:36.043Z,54.45
2022-09-12T16:01:02.603Z,55.24
2022-09-12T16:03:30.092Z,55.14
2022-09-12T16:06:01.749Z,54.89
2022-09-12T16:08:29.603Z,55.03
2022-09-12T16:10:57.421Z,57.44
2022-09-12T16:13:24.393Z,58.20
2022-09-12T16:15:51.364Z,59.00
2022-09-12T16:18:17.793Z,60.47
2022-09-12T16:20:44.167Z,60.77
2022-09-12T16:23:11.513Z,61.17
2022-09-12T16:25:38.722Z,62.24
2022-09-12T16:28:08.414Z,63.01
2022-09-12T16:30:35.566Z,62.58
2022-09-12T16:33:02.296Z,64.39
2022-09-12T16:35:28.880Z,65.31
2022-09-12T16:37:55.303Z,65.28
2022-09-12T16:40:21.738Z,65.86
2022-09-12T16:42:48.189Z,65.44
2022-09-12T16:45:14.649Z,67.27
2022-09-12T16:47:41.105Z,68.30
2022-09-12T16:50:07.761Z,68.81
2022-09-12T16:52:34.531Z,68.63
2022-09-12T16:55:02.470Z,69.39
2022-09-12T16:57:28.867Z,70.85
2022-09-12T16:59:55.253Z,70.61
2022-09-12T17:02:21.699Z,71.15
2022-09-12T17:04:48.848Z,74.08
2022-09-12T17:07:15.266Z,72.88
2022-09-12T17:09:45.100Z,74.32
2022-09-12T17:12:14.079Z,76.27
2022-09-12T17:14:40.447Z,80.77
2022-09-12T17:17:07.265Z,77.69
2022-09-12T17:19:33.680Z,79.76
2022-09-12T17:22:00.061Z,80.44
2022-09-12T17:24:26.773Z,81.29
2022-09-12T17:26:53.691Z,81.07
2022-09-12T17:29:20.306Z,80.38
2022-09-12T17:31:46.713Z,80.60
2022-09-12T17:34:14.650Z,86.48
2022-09-12T17:36:44.219Z,88.43
2022-09-12T17:39:11.601Z,92.93
2022-09-12T17:41:38.018Z,94.11
2022-09-12T17:44:04.937Z,98.57
2022-09-12T17:46:40.804Z,100.00
2022-09-12T17:49:10.711Z,100.00
2022-09-12T17:51:37.147Z,100.00
2022-09-12T17:54:08.359Z,100.00
2022-09-12T17:56:35.753Z,100.00
2022-09-12T17:59:02.502Z,100.00
2022-09-12T18:01:47.916Z,100.00
2022-09-12T18:04:14.894Z,100.00
2022-09-12T18:06:47.792Z,100.00
2022-09-12T18:09:15.024Z,100.00
2022-09-12T18:11:41.415Z,100.00
2022-09-12T18:14:10.441Z,100.00
2022-09-12T18:16:40.170Z,100.00
2022-09-12T18:19:06.645Z,100.00
2022-09-12T18:21:34.195Z,100.00
2022-09-12T18:24:00.792Z,100.00
2022-09-12T18:26:29.070Z,100.00
2022-09-12T18:28:56.091Z,100.00
2022-09-12T18:31:24.382Z,100.00
2022-09-12T18:33:51.742Z,100.00
2022-09-12T18:36:19.118Z,100.00
2022-09-12T18:38:45.907Z,100.00
2022-09-12T18:41:21.189Z,100.00
2022-09-12T18:43:47.986Z,100.00
2022-09-12T18:46:17.384Z,100.00
2022-09-12T18:48:45.134Z,100.00
2022-09-12T18:51:16.904Z,100.00
2022-09-12T18:53:47.874Z,100.00
2022-09-12T18:56:14.651Z,100.00
2022-09-12T18:58:42.918Z,100.00
2022-09-12T19:01:13.807Z,100.00
2022-09-12T19:03:40.733Z,100.00
2022-09-12T19:06:27.808Z,100.00
2022-09-12T19:08:55.571Z,100.00
2022-09-12T19:11:23.496Z,100.00
2022-09-12T19:13:52.302Z,100.00
2022-09-12T19:16:21.701Z,100.00
2022-09-12T19:18:49.863Z,100.00
2022-09-12T19:21:22.463Z,100.00
2022-09-12T19:23:49.455Z,100.00
2022-09-12T19:26:17.550Z,100.00
2022-09-12T19:28:45.366Z,100.00
2022-09-12T19:31:14.962Z,100.00
2022-09-12T19:33:42.047Z,100.00
2022-09-12T19:36:33.693Z,100.00
2022-09-12T19:38:58.958Z,100.00
2022-09-12T19:41:25.789Z,100.00
2022-09-12T19:43:52.323Z,100.00
2022-09-12T19:46:20.979Z,100.00
2022-09-12T19:48:48.517Z,100.00
2022-09-12T19:51:16.688Z,100.00
2022-09-12T19:53:43.722Z,100.00
2022-09-12T19:56:13.974Z,100.00
2022-09-12T19:58:43.299Z,100.00
2022-09-12T20:01:17.430Z,100.00
2022-09-12T20:03:45.191Z,100.00
2022-09-12T20:06:14.762Z,100.00
2022-09-12T20:08:45.087Z,100.00
2022-09-12T20:11:14.111Z,100.00
2022-09-12T20:13:41.430Z,100.00
2022-09-12T20:16:20.354Z,100.00
2022-09-12T20:18:49.405Z,100.00
2022-09-12T20:21:21.824Z,100.00
2022-09-12T20:23:48.483Z,100.00
2022-09-12T20:26:14.997Z,100.00
2022-09-12T20:28:42.069Z,100.00
2022-09-12T20:31:12.701Z,100.00
2022-09-12T20:33:39.862Z,100.00
2022-09-12T20:36:09.545Z,100.00
2022-09-12T20:38:36.798Z,100.00
2022-09-12T20:41:06.492Z,100.00
2022-09-12T20:43:33.484Z,100.00
2022-09-12T20:46:00.234Z,100.00
2022-09-12T20:48:26.865Z,100.00
2022-09-12T20:50:53.467Z,100.00
2022-09-12T20:53:20.285Z,100.00
2022-09-12T20:55:51.545Z,100.00
2022-09-12T20:58:19.505Z,100.00
2022-09-12T21:00:46.994Z,100.00
2022-09-12T21:03:14.686Z,100.00
2022-09-12T21:05:45.459Z,100.00
2022-09-12T21:08:13.187Z,100.00
2022-09-12T21:10:45.866Z,100.00
2022-09-12T21:13:13.373Z,100.00
2022-09-12T21:15:41.162Z,100.00
2022-09-12T21:18:08.020Z,100.00
2022-09-12T21:20:35.030Z,100.00
2022-09-12T21:23:02.250Z,100.00
2022-09-12T21:25:30.004Z,100.00
2022-09-12T21:27:56.618Z,100.00
2022-09-12T21:30:23.153Z,100.00
2022-09-12T21:32:49.658Z,100.00
2022-09-12T21:35:16.268Z,100.00
2022-09-12T21:37:43.179Z,100.00
2022-09-12T21:40:11.037Z,100.00
2022-09-12T21:42:37.548Z,100.00
2022-09-12T21:45:05.114Z,100.00
2022-09-12T21:47:31.627Z,100.00
2022-09-12T21:49:58.475Z,100.00
2022-09-12T21:52:25.264Z,100.00
2022-09-12T21:54:51.850Z,100.00
2022-09-12T21:57:18.324Z,100.00
2022-09-12T21:59:44.894Z,100.00
2022-09-12T22:02:12.428Z,100.00
2022-09-12T22:04:40.088Z,100.00
2022-09-12T22:07:06.770Z,100.00
2022-09-12T22:09:34.430Z,100.00
2022-09-12T22:12:04.253Z,100.00
2022-09-12T22:14:30.832Z,100.00
2022-09-12T22:17:01.164Z,100.00
2022-09-12T22:19:27.731Z,100.00
2022-09-12T22:22:12.527Z,100.00
2022-09-12T22:24:39.124Z,100.00
2022-09-12T22:27:06.720Z,100.00
2022-09-12T22:29:34.353Z,100.00
2022-09-12T22:32:00.965Z,100.00
2022-09-12T22:34:28.447Z,100.00
2022-09-12T22:36:55.720Z,100.00
2022-09-12T22:39:22.711Z,100.00
2022-09-12T22:41:49.283Z,100.00
2022-09-12T22:44:17.777Z,100.00
2022-09-12T22:46:45.036Z,100.00
2022-09-12T22:49:11.652Z,100.00
2022-09-12T22:51:39.103Z,100.00
2022-09-12T22:54:06.318Z,100.00
2022-09-12T22:56:33.302Z,100.00
2022-09-12T22:58:59.811Z,100.00
2022-09-12T23:01:26.567Z,100.00
2022-09-12T23:03:53.270Z,100.00
2022-09-12T23:06:20.036Z,100.00
2022-09-12T23:08:46.724Z,100.00
2022-09-12T23:11:16.024Z,100.00
2022-09-12T23:13:45.282Z,100.00
2022-09-12T23:16:18.648Z,100.00
2022-09-12T23:18:45.869Z,100.00
2022-09-12T23:21:13.616Z,100.00
2022-09-12T23:23:40.840Z,100.00
2022-09-12T23:26:10.865Z,100.00
2022-09-12T23:28:39.159Z,100.00
2022-09-12T23:31:07.567Z,100.00
2022-09-12T23:33:34.148Z,100.00
2022-09-12T23:36:07.689Z,100.00
2022-09-12T23:38:36.314Z,100.00
2022-09-12T23:41:04.808Z,100.00
2022-09-12T23:43:31.748Z,100.00
2022-09-12T23:45:58.757Z,100.00
2022-09-12T23:48:25.272Z,100.00
2022-09-12T23:50:52.915Z,100.00
2022-09-12T23:53:21.488Z,100.00
2022-09-12T23:55:48.928Z,100.00
2022-09-12T23:58:16.055Z,100.00
